createdAt,value
2018-10-18T00:00:54.851Z,9.23
2018-10-18T00:03:22.421Z,10.07
2018-10-18T00:05:50.013Z,9.77
2018-10-18T00:08:17.650Z,9.73
2018-10-18T00:10:45.246Z,9.83
2018-10-18T00:13:12.780Z,10.17
2018-10-18T00:15:40.403Z,10.63
2018-10-18T00:18:08.051Z,10.23
2018-10-18T00:20:35.589Z,10.40
2018-10-18T00:23:03.198Z,9.73
2018-10-18T00:25:30.741Z,8.63
2018-10-18T00:27:58.509Z,10.10
2018-10-18T00:30:26.052Z,10.50
2018-10-18T00:32:53.602Z,10.37
2018-10-18T00:35:21.193Z,9.27
2018-10-18T00:37:49.822Z,10.50
2018-10-18T00:40:17.705Z,10.23
2018-10-18T00:42:45.433Z,10.30
2018-10-18T00:45:13.135Z,10.37
2018-10-18T00:47:41.052Z,10.00
2018-10-18T00:50:09.986Z,10.13
2018-10-18T00:52:37.499Z,10.80
2018-10-18T00:55:05.747Z,11.07
2018-10-18T00:57:33.723Z,9.87
2018-10-18T01:00:01.826Z,10.17
2018-10-18T01:02:29.677Z,10.40
2018-10-18T01:04:57.346Z,9.70
2018-10-18T01:07:24.917Z,9.90
2018-10-18T01:09:52.541Z,10.77
2018-10-18T01:12:20.628Z,10.37
2018-10-18T01:14:48.107Z,9.90
2018-10-18T01:17:15.665Z,11.10
2018-10-18T01:19:43.198Z,11.30
2018-10-18T01:22:10.762Z,9.97
2018-10-18T01:24:38.319Z,10.30
2018-10-18T01:27:06.347Z,9.30
2018-10-18T01:29:33.925Z,10.87
2018-10-18T01:32:01.920Z,9.80
2018-10-18T01:34:29.434Z,9.63
2018-10-18T01:36:57.063Z,10.30
2018-10-18T01:39:24.608Z,9.23
2018-10-18T01:41:52.184Z,9.33
2018-10-18T01:44:19.745Z,9.87
2018-10-18T01:46:47.354Z,10.43
2018-10-18T01:49:14.896Z,10.83
2018-10-18T01:51:42.421Z,9.53
2018-10-18T01:54:10.030Z,10.90
2018-10-18T01:56:37.573Z,10.40
2018-10-18T01:59:11.246Z,9.67
2018-10-18T02:01:38.836Z,10.93
2018-10-18T02:04:06.307Z,9.63
2018-10-18T02:06:33.914Z,9.60
2018-10-18T02:09:01.516Z,9.10
2018-10-18T02:11:29.076Z,9.53
2018-10-18T02:13:56.610Z,9.53
2018-10-18T02:16:24.185Z,9.40
2018-10-18T02:18:51.737Z,9.80
2018-10-18T02:21:19.278Z,9.43
2018-10-18T02:23:47.009Z,10.17
2018-10-18T02:26:14.713Z,9.23
2018-10-18T02:28:42.468Z,9.90
2018-10-18T02:31:09.994Z,9.13
2018-10-18T02:33:37.802Z,9.80
2018-10-18T02:36:05.967Z,9.37
2018-10-18T02:38:33.812Z,9.80
2018-10-18T02:41:02.153Z,8.93
2018-10-18T02:43:30.057Z,10.60
2018-10-18T02:45:57.951Z,10.27
2018-10-18T02:48:25.487Z,10.17
2018-10-18T02:50:53.094Z,9.67
2018-10-18T02:53:20.742Z,9.80
2018-10-18T02:55:48.296Z,9.23
2018-10-18T02:58:16.030Z,9.50
2018-10-18T03:00:43.583Z,9.83
2018-10-18T03:03:11.764Z,9.17
2018-10-18T03:05:39.325Z,9.43
2018-10-18T03:08:07.217Z,9.50
2018-10-18T03:10:34.827Z,9.17
2018-10-18T03:13:02.430Z,9.40
2018-10-18T03:15:29.967Z,9.27
2018-10-18T03:17:57.507Z,8.43
2018-10-18T03:20:25.849Z,8.73
2018-10-18T03:22:53.450Z,9.17
2018-10-18T03:25:21.002Z,10.03
2018-10-18T03:27:49.381Z,8.67
2018-10-18T03:30:17.364Z,8.70
2018-10-18T03:32:44.900Z,8.50
2018-10-18T03:35:12.507Z,9.17
2018-10-18T03:37:40.409Z,9.53
2018-10-18T03:40:08.446Z,9.33
2018-10-18T03:42:36.058Z,9.20
2018-10-18T03:45:04.030Z,9.37
2018-10-18T03:47:31.554Z,8.17
2018-10-18T03:49:59.072Z,8.87
2018-10-18T03:52:26.749Z,8.87
2018-10-18T03:54:54.286Z,8.43
2018-10-18T03:57:22.606Z,9.17
2018-10-18T03:59:50.199Z,8.93
2018-10-18T04:02:17.708Z,9.03
2018-10-18T04:04:45.344Z,9.40
2018-10-18T04:07:12.857Z,9.30
2018-10-18T04:09:40.633Z,9.17
2018-10-18T04:12:08.630Z,9.57
2018-10-18T04:14:36.050Z,8.67
2018-10-18T04:17:04.003Z,9.67
2018-10-18T04:19:31.625Z,9.00
2018-10-18T04:21:59.217Z,9.30
2018-10-18T04:24:27.107Z,8.93
2018-10-18T04:26:55.036Z,9.20
2018-10-18T04:29:23.086Z,9.13
2018-10-18T04:31:50.875Z,9.93
2018-10-18T04:34:18.644Z,9.53
2018-10-18T04:36:46.176Z,8.60
2018-10-18T04:39:13.959Z,8.43
2018-10-18T04:41:42.183Z,8.80
2018-10-18T04:44:09.730Z,9.47
2018-10-18T04:46:37.546Z,9.03
2018-10-18T04:49:05.812Z,9.57
2018-10-18T04:51:33.381Z,9.77
2018-10-18T04:54:01.476Z,9.73
2018-10-18T04:56:29.201Z,9.77
2018-10-18T04:58:56.947Z,10.27
2018-10-18T05:01:24.667Z,8.73
2018-10-18T05:03:52.362Z,9.77
2018-10-18T05:06:19.952Z,9.53
2018-10-18T05:08:47.488Z,10.40
2018-10-18T05:11:15.074Z,9.70
2018-10-18T05:13:42.820Z,10.10
2018-10-18T05:16:10.402Z,10.60
2018-10-18T05:18:37.966Z,10.40
2018-10-18T05:21:05.966Z,10.50
2018-10-18T05:23:33.527Z,10.73
2018-10-18T05:26:02.111Z,10.27
2018-10-18T05:28:29.939Z,9.33
2018-10-18T05:30:57.542Z,9.33
2018-10-18T05:33:25.114Z,11.17
2018-10-18T05:35:52.723Z,9.57
2018-10-18T05:38:20.299Z,9.93
2018-10-18T05:40:47.904Z,8.60
2018-10-18T05:43:15.524Z,9.27
2018-10-18T05:45:43.362Z,8.77
2018-10-18T05:48:10.962Z,9.43
2018-10-18T05:50:38.520Z,8.50
2018-10-18T05:53:06.261Z,9.27
2018-10-18T05:55:33.775Z,8.07
2018-10-18T05:58:01.423Z,9.03
2018-10-18T06:00:28.975Z,9.00
2018-10-18T06:02:56.880Z,10.10
2018-10-18T06:05:24.764Z,9.67
2018-10-18T06:07:52.663Z,8.63
2018-10-18T06:10:31.765Z,9.57
2018-10-18T06:12:59.873Z,8.97
2018-10-18T06:15:27.496Z,8.37
2018-10-18T06:17:55.071Z,8.47
2018-10-18T06:20:22.695Z,9.60
2018-10-18T06:22:50.401Z,9.90
2018-10-18T06:25:18.009Z,9.53
2018-10-18T06:27:45.711Z,9.63
2018-10-18T06:30:14.850Z,9.93
2018-10-18T06:32:42.925Z,10.50
2018-10-18T06:35:12.060Z,12.00
2018-10-18T06:37:39.699Z,11.63
2018-10-18T06:40:10.947Z,10.63
2018-10-18T06:42:39.352Z,10.73
2018-10-18T06:45:09.221Z,11.17
2018-10-18T06:47:37.578Z,10.83
2018-10-18T06:50:09.782Z,10.17
2018-10-18T06:52:37.588Z,10.17
2018-10-18T06:55:06.077Z,10.30
2018-10-18T06:57:34.297Z,11.00
2018-10-18T07:00:02.560Z,10.03
2018-10-18T07:02:30.359Z,10.07
2018-10-18T07:04:58.158Z,11.50
2018-10-18T07:07:25.849Z,10.87
2018-10-18T07:09:53.403Z,11.87
2018-10-18T07:12:21.130Z,11.03
2018-10-18T07:14:48.675Z,11.77
2018-10-18T07:17:16.593Z,10.67
2018-10-18T07:19:44.493Z,10.83
2018-10-18T07:22:12.045Z,11.20
2018-10-18T07:24:39.624Z,10.13
2018-10-18T07:27:07.239Z,10.53
2018-10-18T07:29:34.827Z,10.13
2018-10-18T07:32:02.388Z,11.83
2018-10-18T07:34:29.998Z,12.37
2018-10-18T07:36:57.539Z,11.63
2018-10-18T07:39:25.087Z,12.67
2018-10-18T07:41:52.701Z,12.93
2018-10-18T07:44:20.469Z,12.73
2018-10-18T07:46:48.045Z,13.77
2018-10-18T07:49:15.629Z,13.23
2018-10-18T07:51:43.198Z,13.73
2018-10-18T07:54:10.822Z,11.60
2018-10-18T07:56:38.612Z,12.20
2018-10-18T07:59:06.594Z,12.03
2018-10-18T08:01:34.152Z,11.63
2018-10-18T08:04:01.950Z,13.27
2018-10-18T08:06:29.541Z,13.17
2018-10-18T08:08:57.084Z,13.37
2018-10-18T08:11:24.680Z,12.47
2018-10-18T08:13:52.191Z,13.67
2018-10-18T08:16:19.747Z,11.13
2018-10-18T08:18:47.276Z,11.07
2018-10-18T08:21:14.832Z,12.23
2018-10-18T08:23:42.414Z,12.50
2018-10-18T08:26:09.954Z,11.10
2018-10-18T08:28:37.508Z,12.03
2018-10-18T08:31:05.176Z,11.10
2018-10-18T08:33:32.813Z,10.30
2018-10-18T08:36:00.365Z,9.57
2018-10-18T08:38:27.929Z,9.97
2018-10-18T08:40:55.466Z,10.10
2018-10-18T08:43:23.060Z,10.40
2018-10-18T08:45:51.017Z,12.43
2018-10-18T08:48:18.590Z,10.50
2018-10-18T08:50:46.160Z,11.27
2018-10-18T08:53:13.719Z,11.57
2018-10-18T08:55:41.381Z,11.70
2018-10-18T08:58:08.832Z,10.03
2018-10-18T09:00:36.357Z,11.83
2018-10-18T09:03:04.113Z,9.93
2018-10-18T09:05:31.648Z,11.50
2018-10-18T09:07:59.237Z,9.50
2018-10-18T09:10:26.893Z,9.53
2018-10-18T09:12:54.512Z,9.13
2018-10-18T09:15:22.067Z,9.80
2018-10-18T09:17:49.812Z,9.80
2018-10-18T09:20:17.730Z,10.53
2018-10-18T09:22:45.213Z,9.37
2018-10-18T09:25:12.865Z,9.23
2018-10-18T09:27:40.658Z,10.63
2018-10-18T09:30:09.899Z,9.37
2018-10-18T09:32:37.447Z,9.80
2018-10-18T09:35:05.107Z,7.80
2018-10-18T09:37:32.683Z,7.90
2018-10-18T09:40:00.327Z,7.63
2018-10-18T09:42:27.928Z,7.90
2018-10-18T09:44:55.534Z,6.70
2018-10-18T09:47:23.366Z,7.13
2018-10-18T09:49:51.805Z,6.93
2018-10-18T09:52:19.369Z,6.77
2018-10-18T09:54:47.055Z,6.47
2018-10-18T09:57:15.015Z,6.50
2018-10-18T09:59:42.589Z,6.10
2018-10-18T10:03:16.814Z,6.13
2018-10-18T10:05:44.385Z,6.03
2018-10-18T10:08:12.319Z,6.97
2018-10-18T10:10:40.098Z,6.20
2018-10-18T10:13:08.138Z,5.67
2018-10-18T10:15:35.682Z,5.70
2018-10-18T10:18:03.567Z,6.53
2018-10-18T10:20:31.205Z,5.47
2018-10-18T10:22:58.793Z,5.50
2018-10-18T10:25:26.845Z,5.53
2018-10-18T10:27:54.956Z,5.87
2018-10-18T10:30:22.693Z,5.77
2018-10-18T10:32:50.293Z,6.27
2018-10-18T10:35:18.062Z,5.73
2018-10-18T10:37:45.609Z,6.17
2018-10-18T10:40:13.192Z,5.37
2018-10-18T10:42:41.553Z,5.10
2018-10-18T10:45:10.350Z,4.83
2018-10-18T10:47:37.933Z,5.07
2018-10-18T10:50:06.238Z,5.37
2018-10-18T10:52:33.832Z,5.40
2018-10-18T10:55:01.406Z,4.70
2018-10-18T10:57:29.077Z,4.97
2018-10-18T10:59:56.691Z,5.23
2018-10-18T11:02:24.210Z,5.40
2018-10-18T11:04:51.779Z,5.60
2018-10-18T11:07:19.319Z,5.30
2018-10-18T11:09:46.962Z,6.77
2018-10-18T11:12:14.508Z,5.00
2018-10-18T11:14:42.088Z,6.13
2018-10-18T11:17:09.739Z,5.57
2018-10-18T11:19:37.262Z,5.43
2018-10-18T11:22:05.647Z,5.03
2018-10-18T11:24:33.241Z,5.73
2018-10-18T11:27:00.855Z,6.07
2018-10-18T11:29:28.781Z,4.97
2018-10-18T11:31:56.368Z,5.70
2018-10-18T11:34:23.976Z,5.30
2018-10-18T11:36:51.501Z,5.47
2018-10-18T11:39:19.052Z,5.30
2018-10-18T11:41:46.639Z,4.73
2018-10-18T11:44:14.302Z,5.20
2018-10-18T11:46:41.821Z,4.73
2018-10-18T11:49:09.346Z,5.50
2018-10-18T11:51:36.992Z,5.43
2018-10-18T11:54:04.823Z,5.13
2018-10-18T11:56:32.363Z,5.33
2018-10-18T11:58:59.978Z,5.53
2018-10-18T12:01:28.316Z,4.60
2018-10-18T12:03:55.803Z,6.30
2018-10-18T12:06:23.445Z,5.13
2018-10-18T12:08:51.021Z,4.80
2018-10-18T12:11:18.602Z,4.60
2018-10-18T12:13:46.150Z,4.67
2018-10-18T12:16:13.715Z,5.00
2018-10-18T12:18:41.259Z,5.40
2018-10-18T12:21:08.807Z,5.43
2018-10-18T12:23:36.412Z,4.13
2018-10-18T12:26:04.089Z,4.70
2018-10-18T12:28:31.614Z,4.70
2018-10-18T12:30:59.195Z,4.00
2018-10-18T12:33:26.841Z,5.43
2018-10-18T12:35:54.417Z,4.50
2018-10-18T12:38:21.992Z,4.03
2018-10-18T12:40:49.686Z,5.13
2018-10-18T12:43:17.207Z,4.20
2018-10-18T12:45:44.764Z,4.37
2018-10-18T12:48:12.437Z,4.60
2018-10-18T12:50:39.929Z,4.03
2018-10-18T12:53:07.518Z,4.00
2018-10-18T12:55:35.083Z,3.90
2018-10-18T12:58:02.635Z,3.83
2018-10-18T13:00:30.357Z,4.47
2018-10-18T13:02:57.906Z,4.13
2018-10-18T13:05:25.475Z,3.77
2018-10-18T13:07:52.941Z,3.93
2018-10-18T13:10:20.551Z,3.53
2018-10-18T13:12:48.223Z,4.00
2018-10-18T13:15:15.694Z,3.77
2018-10-18T13:17:43.226Z,3.53
2018-10-18T13:20:11.273Z,3.40
2018-10-18T13:22:39.067Z,3.97
2018-10-18T13:25:07.970Z,3.60
2018-10-18T13:27:35.837Z,3.30
2018-10-18T13:30:03.639Z,3.30
2018-10-18T13:32:31.130Z,3.10
2018-10-18T13:34:58.687Z,3.30
2018-10-18T13:37:26.225Z,3.60
2018-10-18T13:39:53.834Z,3.80
2018-10-18T13:42:21.395Z,3.60
2018-10-18T13:44:48.971Z,3.20
2018-10-18T13:47:16.508Z,3.50
2018-10-18T13:49:44.069Z,3.40
2018-10-18T13:52:11.655Z,3.33
2018-10-18T13:54:39.207Z,3.30
2018-10-18T13:57:06.793Z,3.40
2018-10-18T13:59:45.777Z,3.37
2018-10-18T14:02:13.599Z,3.37
2018-10-18T14:04:40.982Z,2.97
2018-10-18T14:07:08.571Z,3.87
2018-10-18T14:09:36.224Z,3.50
2018-10-18T14:12:03.805Z,3.47
2018-10-18T14:14:31.393Z,3.23
2018-10-18T14:16:58.935Z,2.93
2018-10-18T14:19:26.497Z,3.50
2018-10-18T14:21:54.152Z,3.17
2018-10-18T14:24:21.796Z,2.70
2018-10-18T14:26:49.370Z,3.33
2018-10-18T14:29:17.104Z,2.97
2018-10-18T14:31:44.647Z,2.73
2018-10-18T14:34:12.203Z,2.97
2018-10-18T14:36:39.720Z,3.50
2018-10-18T14:39:07.964Z,3.27
2018-10-18T14:41:36.070Z,3.33
2018-10-18T14:44:03.770Z,3.20
2018-10-18T14:46:31.324Z,3.00
2018-10-18T14:48:59.165Z,2.83
2018-10-18T14:51:26.773Z,2.73
2018-10-18T14:53:54.302Z,2.90
2018-10-18T14:56:21.888Z,2.80
2018-10-18T14:58:49.405Z,3.13
2018-10-18T15:01:16.953Z,3.03
2018-10-18T15:03:44.538Z,2.70
2018-10-18T15:06:12.070Z,3.00
2018-10-18T15:08:39.623Z,3.30
2018-10-18T15:11:07.203Z,2.77
2018-10-18T15:13:34.733Z,2.57
2018-10-18T15:16:02.332Z,2.63
2018-10-18T15:18:29.885Z,2.60
2018-10-18T15:20:57.530Z,2.70
2018-10-18T15:23:25.055Z,2.67
2018-10-18T15:25:52.672Z,2.60
2018-10-18T15:28:20.191Z,2.70
2018-10-18T15:30:47.729Z,2.40
2018-10-18T15:33:15.359Z,2.53
2018-10-18T15:35:42.821Z,3.27
2018-10-18T15:38:10.430Z,2.93
2018-10-18T15:40:37.946Z,2.70
2018-10-18T15:43:05.627Z,2.47
2018-10-18T15:45:33.100Z,2.50
2018-10-18T15:48:00.797Z,2.23
2018-10-18T15:50:28.357Z,2.50
2018-10-18T15:52:55.919Z,2.77
2018-10-18T15:55:23.439Z,2.60
2018-10-18T15:57:50.993Z,2.90
2018-10-18T16:00:18.661Z,2.27
2018-10-18T16:02:46.197Z,2.50
2018-10-18T16:05:13.759Z,2.37
2018-10-18T16:07:41.282Z,2.53
2018-10-18T16:10:09.237Z,2.87
2018-10-18T16:12:37.176Z,2.53
2018-10-18T16:15:05.644Z,2.50
2018-10-18T16:17:33.195Z,2.47
2018-10-18T16:20:00.821Z,3.17
2018-10-18T16:22:28.422Z,2.87
2018-10-18T16:24:56.484Z,3.33
2018-10-18T16:27:24.438Z,4.27
2018-10-18T16:29:52.389Z,3.80
2018-10-18T16:32:20.262Z,3.33
2018-10-18T16:34:47.966Z,2.60
2018-10-18T16:37:15.492Z,2.83
2018-10-18T16:39:43.304Z,2.53
2018-10-18T16:42:10.955Z,2.37
2018-10-18T16:44:38.515Z,2.03
2018-10-18T16:47:06.420Z,2.83
2018-10-18T16:49:33.956Z,2.80
2018-10-18T16:52:01.545Z,3.20
2018-10-18T16:54:29.102Z,3.30
2018-10-18T16:56:56.927Z,3.03
2018-10-18T16:59:24.469Z,3.17
2018-10-18T17:01:52.021Z,3.07
2018-10-18T17:04:19.840Z,3.23
2018-10-18T17:06:47.427Z,3.10
2018-10-18T17:09:14.993Z,2.50
2018-10-18T17:11:42.569Z,2.87
2018-10-18T17:14:10.168Z,3.00
2018-10-18T17:16:37.708Z,3.27
2018-10-18T17:19:05.735Z,3.40
2018-10-18T17:21:33.302Z,2.57
2018-10-18T17:24:00.865Z,2.60
2018-10-18T17:26:28.441Z,3.10
2018-10-18T17:28:56.025Z,3.17
2018-10-18T17:31:23.592Z,2.97
2018-10-18T17:33:51.112Z,3.80
2018-10-18T17:36:18.743Z,2.87
2018-10-18T17:38:46.249Z,3.90
2018-10-18T17:41:14.226Z,3.43
2018-10-18T17:43:41.874Z,3.37
2018-10-18T17:46:09.439Z,3.20
2018-10-18T17:48:36.975Z,3.50
2018-10-18T17:51:04.778Z,5.60
2018-10-18T17:53:32.347Z,5.63
2018-10-18T17:55:59.891Z,6.43
2018-10-18T17:58:27.465Z,5.67
2018-10-18T18:00:55.041Z,4.47
2018-10-18T18:03:22.635Z,3.40
2018-10-18T18:05:50.788Z,3.00
2018-10-18T18:08:18.356Z,3.07
2018-10-18T18:10:45.897Z,3.33
2018-10-18T18:13:13.437Z,3.27
2018-10-18T18:15:41.003Z,3.23
2018-10-18T18:18:08.584Z,3.60
2018-10-18T18:20:36.159Z,2.87
2018-10-18T18:23:04.200Z,3.27
2018-10-18T18:25:31.739Z,3.17
2018-10-18T18:27:59.310Z,3.10
2018-10-18T18:30:26.874Z,2.70
2018-10-18T18:32:54.449Z,2.13
2018-10-18T18:35:21.984Z,2.30
2018-10-18T18:37:49.535Z,2.57
2018-10-18T18:40:17.097Z,2.70
2018-10-18T18:42:44.859Z,2.73
2018-10-18T18:45:18.250Z,2.80
2018-10-18T18:47:45.745Z,2.30
2018-10-18T18:50:13.309Z,3.20
2018-10-18T18:52:40.851Z,2.67
2018-10-18T18:55:09.327Z,2.63
2018-10-18T18:57:36.890Z,2.40
2018-10-18T19:00:05.337Z,3.03
2018-10-18T19:02:32.908Z,2.83
2018-10-18T19:05:00.461Z,2.90
2018-10-18T19:07:28.287Z,3.00
2018-10-18T19:09:55.987Z,2.80
2018-10-18T19:12:23.562Z,2.83
2018-10-18T19:14:51.153Z,3.53
2018-10-18T19:17:18.719Z,2.73
2018-10-18T19:19:46.263Z,2.60
2018-10-18T19:22:13.800Z,2.90
2018-10-18T19:24:41.321Z,3.00
2018-10-18T19:27:08.909Z,2.43
2018-10-18T19:29:36.468Z,2.40
2018-10-18T19:32:04.442Z,2.67
2018-10-18T19:34:31.995Z,2.50
2018-10-18T19:36:59.575Z,2.20
2018-10-18T19:39:27.114Z,2.50
2018-10-18T19:41:54.826Z,2.30
2018-10-18T19:44:22.926Z,3.50
2018-10-18T19:46:50.642Z,3.00
2018-10-18T19:49:18.205Z,2.87
2018-10-18T19:51:45.765Z,2.83
2018-10-18T19:54:13.319Z,2.53
2018-10-18T19:56:40.887Z,2.37
2018-10-18T19:59:24.131Z,2.30
2018-10-18T20:01:51.758Z,2.30
2018-10-18T20:04:19.697Z,2.60
2018-10-18T20:06:48.162Z,2.90
2018-10-18T20:09:15.641Z,2.47
2018-10-18T20:11:43.323Z,2.30
2018-10-18T20:14:10.948Z,2.47
2018-10-18T20:16:38.502Z,2.60
2018-10-18T20:19:06.154Z,2.90
2018-10-18T20:21:33.699Z,2.90
2018-10-18T20:24:01.419Z,2.20
2018-10-18T20:26:29.078Z,2.67
2018-10-18T20:28:56.566Z,2.47
2018-10-18T20:31:24.129Z,2.10
2018-10-18T20:33:51.648Z,2.30
2018-10-18T20:36:19.148Z,2.50
2018-10-18T20:38:46.733Z,2.93
2018-10-18T20:41:14.397Z,2.53
2018-10-18T20:43:42.229Z,2.27
2018-10-18T20:46:10.072Z,2.30
2018-10-18T20:48:37.633Z,2.60
2018-10-18T20:51:05.247Z,2.60
2018-10-18T20:53:33.015Z,2.77
2018-10-18T20:56:00.653Z,2.43
2018-10-18T20:58:28.203Z,2.90
2018-10-18T21:00:55.777Z,2.90
2018-10-18T21:03:23.333Z,2.60
2018-10-18T21:05:50.873Z,2.60
2018-10-18T21:08:18.496Z,2.90
2018-10-18T21:10:46.121Z,2.37
2018-10-18T21:13:13.628Z,2.57
2018-10-18T21:15:41.220Z,3.30
2018-10-18T21:18:08.836Z,3.47
2018-10-18T21:20:36.406Z,2.40
2018-10-18T21:23:04.630Z,3.33
2018-10-18T21:25:32.285Z,3.17
2018-10-18T21:27:59.865Z,3.10
2018-10-18T21:30:27.454Z,3.10
2018-10-18T21:32:55.250Z,3.33
2018-10-18T21:35:22.797Z,3.47
2018-10-18T21:37:50.392Z,2.50
2018-10-18T21:40:17.993Z,3.77
2018-10-18T21:42:45.626Z,3.23
2018-10-18T21:45:13.686Z,3.83
2018-10-18T21:47:41.651Z,3.40
2018-10-18T21:50:09.223Z,3.50
2018-10-18T21:52:36.768Z,3.20
2018-10-18T21:55:05.045Z,3.30
2018-10-18T21:57:32.719Z,3.60
2018-10-18T22:00:00.304Z,3.83
2018-10-18T22:02:27.983Z,3.40
2018-10-18T22:04:55.553Z,3.40
2018-10-18T22:07:23.342Z,3.07
2018-10-18T22:09:51.152Z,3.50
2018-10-18T22:12:18.927Z,3.43
2018-10-18T22:14:46.572Z,3.33
2018-10-18T22:17:14.168Z,3.53
2018-10-18T22:19:41.664Z,3.50
2018-10-18T22:22:09.366Z,3.50
2018-10-18T22:24:36.904Z,4.20
2018-10-18T22:27:04.765Z,3.70
2018-10-18T22:29:32.443Z,3.57
2018-10-18T22:31:59.984Z,3.77
2018-10-18T22:34:27.536Z,3.37
2018-10-18T22:36:55.155Z,3.67
2018-10-18T22:39:22.771Z,3.60
2018-10-18T22:41:50.474Z,3.00
2018-10-18T22:44:18.148Z,3.27
2018-10-18T22:46:46.459Z,3.43
2018-10-18T22:49:14.376Z,3.40
2018-10-18T22:51:44.261Z,3.13
2018-10-18T22:54:11.854Z,3.43
2018-10-18T22:56:39.393Z,3.33
2018-10-18T22:59:10.694Z,3.50
2018-10-18T23:01:38.236Z,3.17
2018-10-18T23:04:05.833Z,3.17
2018-10-18T23:06:33.477Z,3.00
2018-10-18T23:09:01.056Z,2.90
2018-10-18T23:11:28.668Z,3.10
2018-10-18T23:13:56.209Z,3.03
2018-10-18T23:16:23.770Z,3.27
2018-10-18T23:18:51.363Z,3.10
2018-10-18T23:21:19.747Z,3.23
2018-10-18T23:23:50.174Z,3.40
2018-10-18T23:26:17.816Z,3.27
2018-10-18T23:28:45.377Z,3.37
2018-10-18T23:31:12.949Z,3.20
2018-10-18T23:33:40.486Z,4.07
2018-10-18T23:36:08.020Z,3.33
2018-10-18T23:38:35.713Z,3.70
2018-10-18T23:41:03.454Z,3.00
2018-10-18T23:43:31.081Z,3.13
2018-10-18T23:45:58.602Z,3.23
2018-10-18T23:48:26.222Z,3.30
2018-10-18T23:50:53.806Z,3.87
2018-10-18T23:53:21.368Z,3.40
2018-10-18T23:55:48.918Z,3.30
2018-10-18T23:58:16.560Z,2.93
